sensor_id;sensor_type;location;lat;lon;timestamp;P1;durP1;ratioP1;P2;durP2;ratioP2
37065;SDS011;22981;43.080;25.550;2023-05-07T06:31:12;14.70;;;12.10;;
37065;SDS011;22981;43.080;25.550;2023-05-07T06:33:51;14.30;;;12.55;;
37065;SDS011;22981;43.080;25.550;2023-05-07T06:36:20;14.80;;;11.88;;
37065;SDS011;22981;43.080;25.550;2023-05-07T06:38:48;12.98;;;11.35;;
37065;SDS011;22981;43.080;25.550;2023-05-07T06:41:15;14.63;;;10.82;;
37065;SDS011;22981;43.080;25.550;2023-05-07T06:43:43;12.03;;;10.82;;
37065;SDS011;22981;43.080;25.550;2023-05-07T06:46:10;11.22;;;9.98;;
37065;SDS011;22981;43.080;25.550;2023-05-07T06:48:38;13.75;;;10.68;;
37065;SDS011;22981;43.080;25.550;2023-05-07T06:51:05;11.95;;;9.28;;
37065;SDS011;22981;43.080;25.550;2023-05-07T06:53:33;11.68;;;9.75;;
37065;SDS011;22981;43.080;25.550;2023-05-07T06:56:01;7.95;;;6.83;;
37065;SDS011;22981;43.080;25.550;2023-05-07T06:58:29;9.33;;;7.03;;
37065;SDS011;22981;43.080;25.550;2023-05-07T07:00:57;8.28;;;6.87;;
37065;SDS011;22981;43.080;25.550;2023-05-07T07:03:24;8.63;;;7.70;;
37065;SDS011;22981;43.080;25.550;2023-05-07T07:05:52;6.95;;;5.15;;
37065;SDS011;22981;43.080;25.550;2023-05-07T07:08:21;7.25;;;5.65;;
37065;SDS011;22981;43.080;25.550;2023-05-07T07:10:49;5.20;;;4.55;;
37065;SDS011;22981;43.080;25.550;2023-05-07T07:13:16;4.53;;;3.75;;
37065;SDS011;22981;43.080;25.550;2023-05-07T07:15:44;6.30;;;3.20;;
37065;SDS011;22981;43.080;25.550;2023-05-07T07:18:12;3.20;;;2.50;;
37065;SDS011;22981;43.080;25.550;2023-05-07T07:20:39;6.47;;;3.02;;
37065;SDS011;22981;43.080;25.550;2023-05-07T07:23:07;5.17;;;2.10;;
37065;SDS011;22981;43.080;25.550;2023-05-07T07:25:34;2.85;;;2.33;;
37065;SDS011;22981;43.080;25.550;2023-05-07T07:28:02;5.53;;;2.95;;
37065;SDS011;22981;43.080;25.550;2023-05-07T07:30:30;4.95;;;3.37;;
37065;SDS011;22981;43.080;25.550;2023-05-07T07:32:57;5.87;;;2.62;;
37065;SDS011;22981;43.080;25.550;2023-05-07T07:35:26;4.28;;;2.55;;
37065;SDS011;22981;43.080;25.550;2023-05-07T07:37:55;3.10;;;2.30;;
37065;SDS011;22981;43.080;25.550;2023-05-07T07:40:23;3.35;;;2.17;;
37065;SDS011;22981;43.080;25.550;2023-05-07T07:42:51;2.65;;;2.02;;
37065;SDS011;22981;43.080;25.550;2023-05-07T07:45:19;3.10;;;2.17;;
37065;SDS011;22981;43.080;25.550;2023-05-07T07:47:47;7.00;;;2.10;;
37065;SDS011;22981;43.080;25.550;2023-05-07T07:50:14;5.33;;;1.92;;
37065;SDS011;22981;43.080;25.550;2023-05-07T07:52:43;4.28;;;2.47;;
37065;SDS011;22981;43.080;25.550;2023-05-07T07:55:11;4.42;;;2.12;;
37065;SDS011;22981;43.080;25.550;2023-05-07T07:57:39;7.47;;;2.20;;
37065;SDS011;22981;43.080;25.550;2023-05-07T08:00:07;4.42;;;2.12;;
37065;SDS011;22981;43.080;25.550;2023-05-07T08:02:35;3.00;;;2.02;;
37065;SDS011;22981;43.080;25.550;2023-05-07T08:05:02;4.37;;;2.45;;
37065;SDS011;22981;43.080;25.550;2023-05-07T08:07:30;7.90;;;2.47;;
37065;SDS011;22981;43.080;25.550;2023-05-07T08:09:58;4.50;;;2.20;;
37065;SDS011;22981;43.080;25.550;2023-05-07T08:12:25;4.25;;;2.45;;
37065;SDS011;22981;43.080;25.550;2023-05-07T08:14:53;3.08;;;2.17;;
37065;SDS011;22981;43.080;25.550;2023-05-07T08:17:20;6.17;;;2.17;;
37065;SDS011;22981;43.080;25.550;2023-05-07T08:19:48;3.45;;;2.00;;
37065;SDS011;22981;43.080;25.550;2023-05-07T08:22:16;5.17;;;1.90;;
37065;SDS011;22981;43.080;25.550;2023-05-07T08:24:44;5.75;;;2.40;;
37065;SDS011;22981;43.080;25.550;2023-05-07T08:27:11;3.70;;;2.00;;
37065;SDS011;22981;43.080;25.550;2023-05-07T08:29:39;4.72;;;2.35;;
37065;SDS011;22981;43.080;25.550;2023-05-07T08:32:06;5.42;;;1.98;;
37065;SDS011;22981;43.080;25.550;2023-05-07T08:34:34;5.28;;;1.62;;
37065;SDS011;22981;43.080;25.550;2023-05-07T08:37:01;4.12;;;1.80;;
37065;SDS011;22981;43.080;25.550;2023-05-07T08:39:29;4.25;;;2.55;;
37065;SDS011;22981;43.080;25.550;2023-05-07T08:41:57;5.17;;;2.05;;
37065;SDS011;22981;43.080;25.550;2023-05-07T08:44:32;5.35;;;2.70;;
37065;SDS011;22981;43.080;25.550;2023-05-07T08:47:00;4.83;;;1.92;;
37065;SDS011;22981;43.080;25.550;2023-05-07T08:49:28;1.77;;;1.47;;
37065;SDS011;22981;43.080;25.550;2023-05-07T08:51:56;5.58;;;1.80;;
37065;SDS011;22981;43.080;25.550;2023-05-07T08:54:24;4.30;;;1.77;;
37065;SDS011;22981;43.080;25.550;2023-05-07T08:56:52;2.98;;;1.40;;
37065;SDS011;22981;43.080;25.550;2023-05-07T08:59:20;3.80;;;1.60;;
37065;SDS011;22981;43.080;25.550;2023-05-07T09:01:47;5.55;;;1.80;;
37065;SDS011;22981;43.080;25.550;2023-05-07T09:04:15;1.87;;;1.30;;
37065;SDS011;22981;43.080;25.550;2023-05-07T09:06:43;3.12;;;1.30;;
37065;SDS011;22981;43.080;25.550;2023-05-07T09:09:10;1.98;;;1.22;;
37065;SDS011;22981;43.080;25.550;2023-05-07T09:11:41;4.62;;;1.45;;
37065;SDS011;22981;43.080;25.550;2023-05-07T09:14:08;2.45;;;1.40;;
37065;SDS011;22981;43.080;25.550;2023-05-07T09:16:36;3.22;;;1.20;;
37065;SDS011;22981;43.080;25.550;2023-05-07T09:19:04;3.98;;;1.20;;
37065;SDS011;22981;43.080;25.550;2023-05-07T09:21:31;1.52;;;1.25;;
37065;SDS011;22981;43.080;25.550;2023-05-07T09:23:59;1.52;;;0.98;;
37065;SDS011;22981;43.080;25.550;2023-05-07T09:26:26;1.40;;;1.20;;
37065;SDS011;22981;43.080;25.550;2023-05-07T09:28:55;6.70;;;1.55;;
37065;SDS011;22981;43.080;25.550;2023-05-07T09:31:22;3.62;;;1.50;;
37065;SDS011;22981;43.080;25.550;2023-05-07T09:33:52;4.85;;;1.50;;
37065;SDS011;22981;43.080;25.550;2023-05-07T09:36:21;3.08;;;1.27;;
37065;SDS011;22981;43.080;25.550;2023-05-07T09:38:49;3.22;;;1.30;;
37065;SDS011;22981;43.080;25.550;2023-05-07T09:41:17;2.72;;;1.30;;
37065;SDS011;22981;43.080;25.550;2023-05-07T09:43:45;2.80;;;1.52;;
37065;SDS011;22981;43.080;25.550;2023-05-07T09:46:13;3.77;;;1.45;;
37065;SDS011;22981;43.080;25.550;2023-05-07T09:48:42;4.67;;;1.60;;
37065;SDS011;22981;43.080;25.550;2023-05-07T09:51:13;5.37;;;1.60;;
37065;SDS011;22981;43.080;25.550;2023-05-07T09:53:43;2.77;;;1.30;;
37065;SDS011;22981;43.080;25.550;2023-05-07T09:56:13;2.45;;;1.50;;
37065;SDS011;22981;43.080;25.550;2023-05-07T09:58:41;2.45;;;1.35;;
37065;SDS011;22981;43.080;25.550;2023-05-07T10:01:11;1.80;;;1.45;;
37065;SDS011;22981;43.080;25.550;2023-05-07T10:03:40;7.05;;;1.82;;
37065;SDS011;22981;43.080;25.550;2023-05-07T10:06:09;4.80;;;1.75;;
37065;SDS011;22981;43.080;25.550;2023-05-07T10:08:38;3.77;;;1.90;;
37065;SDS011;22981;43.080;25.550;2023-05-07T10:11:06;7.22;;;1.50;;
37065;SDS011;22981;43.080;25.550;2023-05-07T10:13:34;3.00;;;1.57;;
37065;SDS011;22981;43.080;25.550;2023-05-07T10:16:03;2.42;;;1.50;;
37065;SDS011;22981;43.080;25.550;2023-05-07T10:18:31;5.83;;;1.92;;
37065;SDS011;22981;43.080;25.550;2023-05-07T10:21:06;2.85;;;1.72;;
37065;SDS011;22981;43.080;25.550;2023-05-07T10:23:30;4.95;;;1.80;;
37065;SDS011;22981;43.080;25.550;2023-05-07T10:26:03;3.70;;;1.85;;
37065;SDS011;22981;43.080;25.550;2023-05-07T10:28:34;3.17;;;1.70;;
37065;SDS011;22981;43.080;25.550;2023-05-07T10:33:46;4.42;;;1.62;;
37065;SDS011;22981;43.080;25.550;2023-05-07T10:36:15;3.50;;;1.95;;
37065;SDS011;22981;43.080;25.550;2023-05-07T10:38:43;5.37;;;1.80;;
37065;SDS011;22981;43.080;25.550;2023-05-07T10:41:12;3.95;;;1.62;;
37065;SDS011;22981;43.080;25.550;2023-05-07T10:43:41;2.35;;;1.70;;
37065;SDS011;22981;43.080;25.550;2023-05-07T10:46:11;3.95;;;1.90;;
37065;SDS011;22981;43.080;25.550;2023-05-07T10:51:32;3.70;;;1.70;;
37065;SDS011;22981;43.080;25.550;2023-05-07T10:56:41;3.27;;;1.80;;
37065;SDS011;22981;43.080;25.550;2023-05-07T11:01:58;3.12;;;1.72;;
37065;SDS011;22981;43.080;25.550;2023-05-07T11:04:31;2.75;;;1.70;;
37065;SDS011;22981;43.080;25.550;2023-05-07T11:10:12;2.90;;;1.82;;
37065;SDS011;22981;43.080;25.550;2023-05-07T11:15:10;6.90;;;2.40;;
37065;SDS011;22981;43.080;25.550;2023-05-07T11:17:54;7.87;;;2.02;;
37065;SDS011;22981;43.080;25.550;2023-05-07T11:28:37;2.30;;;1.77;;
37065;SDS011;22981;43.080;25.550;2023-05-07T11:31:06;3.47;;;1.72;;
37065;SDS011;22981;43.080;25.550;2023-05-07T11:33:35;3.05;;;1.70;;
37065;SDS011;22981;43.080;25.550;2023-05-07T11:36:04;3.62;;;2.10;;
37065;SDS011;22981;43.080;25.550;2023-05-07T11:38:36;4.28;;;1.80;;
37065;SDS011;22981;43.080;25.550;2023-05-07T11:41:04;3.33;;;1.60;;
37065;SDS011;22981;43.080;25.550;2023-05-07T11:43:33;2.83;;;1.80;;
37065;SDS011;22981;43.080;25.550;2023-05-07T11:46:09;4.45;;;2.00;;
37065;SDS011;22981;43.080;25.550;2023-05-07T11:48:35;4.17;;;1.80;;
37065;SDS011;22981;43.080;25.550;2023-05-07T11:51:03;4.80;;;2.10;;
37065;SDS011;22981;43.080;25.550;2023-05-07T11:53:41;3.42;;;1.77;;
37065;SDS011;22981;43.080;25.550;2023-05-07T11:56:10;5.47;;;1.92;;
37065;SDS011;22981;43.080;25.550;2023-05-07T11:58:40;3.98;;;1.80;;
37065;SDS011;22981;43.080;25.550;2023-05-07T12:01:09;3.65;;;1.75;;
37065;SDS011;22981;43.080;25.550;2023-05-07T12:03:40;3.15;;;1.62;;
37065;SDS011;22981;43.080;25.550;2023-05-07T12:06:11;5.33;;;1.90;;
37065;SDS011;22981;43.080;25.550;2023-05-07T12:08:41;2.00;;;1.80;;
37065;SDS011;22981;43.080;25.550;2023-05-07T12:11:11;4.40;;;1.65;;
37065;SDS011;22981;43.080;25.550;2023-05-07T12:13:45;2.35;;;1.70;;
37065;SDS011;22981;43.080;25.550;2023-05-07T12:16:13;7.80;;;2.20;;
37065;SDS011;22981;43.080;25.550;2023-05-07T12:18:41;4.85;;;1.82;;
37065;SDS011;22981;43.080;25.550;2023-05-07T12:21:09;3.10;;;2.00;;
37065;SDS011;22981;43.080;25.550;2023-05-07T12:23:37;4.37;;;1.82;;
37065;SDS011;22981;43.080;25.550;2023-05-07T12:26:06;3.70;;;2.15;;
37065;SDS011;22981;43.080;25.550;2023-05-07T12:28:38;4.70;;;1.85;;
37065;SDS011;22981;43.080;25.550;2023-05-07T12:31:06;4.20;;;1.77;;
37065;SDS011;22981;43.080;25.550;2023-05-07T12:33:34;2.60;;;1.80;;
37065;SDS011;22981;43.080;25.550;2023-05-07T12:36:03;4.33;;;1.60;;
37065;SDS011;22981;43.080;25.550;2023-05-07T12:38:37;3.55;;;1.87;;
37065;SDS011;22981;43.080;25.550;2023-05-07T12:41:06;6.05;;;1.70;;
37065;SDS011;22981;43.080;25.550;2023-05-07T12:43:36;3.17;;;1.70;;
37065;SDS011;22981;43.080;25.550;2023-05-07T12:46:05;3.00;;;1.65;;
37065;SDS011;22981;43.080;25.550;2023-05-07T12:48:35;3.30;;;1.82;;
37065;SDS011;22981;43.080;25.550;2023-05-07T12:51:04;4.58;;;1.65;;
37065;SDS011;22981;43.080;25.550;2023-05-07T12:53:34;5.45;;;2.00;;
37065;SDS011;22981;43.080;25.550;2023-05-07T12:56:05;4.00;;;1.65;;
37065;SDS011;22981;43.080;25.550;2023-05-07T12:58:33;5.55;;;1.80;;
37065;SDS011;22981;43.080;25.550;2023-05-07T13:01:05;5.72;;;2.47;;
37065;SDS011;22981;43.080;25.550;2023-05-07T13:03:35;3.45;;;1.75;;
37065;SDS011;22981;43.080;25.550;2023-05-07T13:06:09;3.35;;;1.80;;
37065;SDS011;22981;43.080;25.550;2023-05-07T13:08:36;3.27;;;1.47;;
37065;SDS011;22981;43.080;25.550;2023-05-07T13:11:09;2.75;;;1.70;;
37065;SDS011;22981;43.080;25.550;2023-05-07T13:13:38;3.25;;;1.55;;
37065;SDS011;22981;43.080;25.550;2023-05-07T13:16:07;3.17;;;1.37;;
37065;SDS011;22981;43.080;25.550;2023-05-07T13:18:37;4.78;;;1.67;;
37065;SDS011;22981;43.080;25.550;2023-05-07T13:21:06;6.20;;;1.80;;
37065;SDS011;22981;43.080;25.550;2023-05-07T13:23:33;4.35;;;1.77;;
37065;SDS011;22981;43.080;25.550;2023-05-07T13:26:01;4.03;;;1.75;;
37065;SDS011;22981;43.080;25.550;2023-05-07T13:28:28;2.52;;;1.60;;
37065;SDS011;22981;43.080;25.550;2023-05-07T13:30:56;2.35;;;1.90;;
37065;SDS011;22981;43.080;25.550;2023-05-07T13:33:23;5.42;;;1.92;;
37065;SDS011;22981;43.080;25.550;2023-05-07T13:35:51;2.50;;;1.60;;
37065;SDS011;22981;43.080;25.550;2023-05-07T13:38:18;3.98;;;1.80;;
37065;SDS011;22981;43.080;25.550;2023-05-07T13:40:46;2.40;;;1.57;;
37065;SDS011;22981;43.080;25.550;2023-05-07T13:43:14;1.75;;;1.55;;
37065;SDS011;22981;43.080;25.550;2023-05-07T13:45:43;3.55;;;1.60;;
37065;SDS011;22981;43.080;25.550;2023-05-07T13:48:10;2.33;;;1.45;;
37065;SDS011;22981;43.080;25.550;2023-05-07T13:50:38;1.85;;;1.70;;
37065;SDS011;22981;43.080;25.550;2023-05-07T13:53:05;3.67;;;2.02;;
37065;SDS011;22981;43.080;25.550;2023-05-07T13:55:33;3.20;;;1.72;;
37065;SDS011;22981;43.080;25.550;2023-05-07T13:58:01;1.98;;;1.42;;
37065;SDS011;22981;43.080;25.550;2023-05-07T14:00:29;4.37;;;1.70;;
37065;SDS011;22981;43.080;25.550;2023-05-07T14:02:57;2.60;;;1.60;;
37065;SDS011;22981;43.080;25.550;2023-05-07T14:05:24;2.90;;;1.67;;
37065;SDS011;22981;43.080;25.550;2023-05-07T14:07:54;2.92;;;1.60;;
37065;SDS011;22981;43.080;25.550;2023-05-07T14:10:23;3.25;;;1.60;;
37065;SDS011;22981;43.080;25.550;2023-05-07T14:12:51;2.35;;;1.87;;
37065;SDS011;22981;43.080;25.550;2023-05-07T14:15:19;4.37;;;1.70;;
37065;SDS011;22981;43.080;25.550;2023-05-07T14:17:47;3.92;;;1.90;;
37065;SDS011;22981;43.080;25.550;2023-05-07T14:20:14;3.92;;;1.70;;
37065;SDS011;22981;43.080;25.550;2023-05-07T14:22:42;2.85;;;1.60;;
37065;SDS011;22981;43.080;25.550;2023-05-07T14:25:10;2.40;;;1.50;;
37065;SDS011;22981;43.080;25.550;2023-05-07T14:27:38;1.77;;;1.42;;
37065;SDS011;22981;43.080;25.550;2023-05-07T14:30:06;2.05;;;1.75;;
37065;SDS011;22981;43.080;25.550;2023-05-07T14:32:35;4.78;;;1.67;;
37065;SDS011;22981;43.080;25.550;2023-05-07T14:35:03;4.55;;;1.82;;
37065;SDS011;22981;43.080;25.550;2023-05-07T14:37:31;2.80;;;1.60;;
37065;SDS011;22981;43.080;25.550;2023-05-07T14:39:58;2.20;;;1.52;;
37065;SDS011;22981;43.080;25.550;2023-05-07T14:42:26;4.55;;;1.92;;
37065;SDS011;22981;43.080;25.550;2023-05-07T14:44:53;3.45;;;1.60;;
37065;SDS011;22981;43.080;25.550;2023-05-07T14:47:21;3.10;;;1.70;;
37065;SDS011;22981;43.080;25.550;2023-05-07T14:49:48;3.77;;;1.70;;
37065;SDS011;22981;43.080;25.550;2023-05-07T14:52:16;4.37;;;1.77;;
37065;SDS011;22981;43.080;25.550;2023-05-07T14:54:44;2.67;;;1.62;;
37065;SDS011;22981;43.080;25.550;2023-05-07T14:57:13;4.72;;;3.50;;
37065;SDS011;22981;43.080;25.550;2023-05-07T14:59:42;6.92;;;4.75;;
37065;SDS011;22981;43.080;25.550;2023-05-07T15:02:11;16.37;;;9.08;;
37065;SDS011;22981;43.080;25.550;2023-05-07T15:04:38;8.43;;;6.78;;
37065;SDS011;22981;43.080;25.550;2023-05-07T15:07:08;5.92;;;4.20;;
37065;SDS011;22981;43.080;25.550;2023-05-07T15:09:36;8.78;;;5.37;;
37065;SDS011;22981;43.080;25.550;2023-05-07T15:12:03;13.65;;;7.20;;
37065;SDS011;22981;43.080;25.550;2023-05-07T15:14:31;26.10;;;15.18;;
37065;SDS011;22981;43.080;25.550;2023-05-07T15:16:58;11.08;;;7.70;;
37065;SDS011;22981;43.080;25.550;2023-05-07T15:19:26;10.70;;;9.43;;
37065;SDS011;22981;43.080;25.550;2023-05-07T15:21:57;9.65;;;6.53;;
37065;SDS011;22981;43.080;25.550;2023-05-07T15:24:28;6.67;;;3.12;;
37065;SDS011;22981;43.080;25.550;2023-05-07T15:26:56;102.53;;;56.48;;
37065;SDS011;22981;43.080;25.550;2023-05-07T15:29:24;4.97;;;3.40;;
37065;SDS011;22981;43.080;25.550;2023-05-07T15:31:51;14.28;;;8.70;;
37065;SDS011;22981;43.080;25.550;2023-05-07T15:34:20;17.42;;;11.68;;
37065;SDS011;22981;43.080;25.550;2023-05-07T15:36:49;6.58;;;3.42;;
37065;SDS011;22981;43.080;25.550;2023-05-07T15:39:17;6.30;;;2.65;;
37065;SDS011;22981;43.080;25.550;2023-05-07T15:41:44;7.35;;;5.78;;
37065;SDS011;22981;43.080;25.550;2023-05-07T15:44:12;9.55;;;7.90;;
37065;SDS011;22981;43.080;25.550;2023-05-07T15:46:39;3.77;;;3.05;;
37065;SDS011;22981;43.080;25.550;2023-05-07T15:49:07;7.65;;;3.50;;
37065;SDS011;22981;43.080;25.550;2023-05-07T15:51:35;4.95;;;2.92;;
37065;SDS011;22981;43.080;25.550;2023-05-07T15:54:02;4.67;;;2.15;;
37065;SDS011;22981;43.080;25.550;2023-05-07T15:56:30;14.33;;;7.58;;
37065;SDS011;22981;43.080;25.550;2023-05-07T15:58:58;17.50;;;9.50;;
37065;SDS011;22981;43.080;25.550;2023-05-07T16:01:27;15.28;;;7.90;;
37065;SDS011;22981;43.080;25.550;2023-05-07T16:03:54;16.82;;;6.45;;
37065;SDS011;22981;43.080;25.550;2023-05-07T16:06:22;8.98;;;4.70;;
37065;SDS011;22981;43.080;25.550;2023-05-07T16:08:49;7.25;;;4.05;;
37065;SDS011;22981;43.080;25.550;2023-05-07T16:11:17;6.75;;;4.22;;
37065;SDS011;22981;43.080;25.550;2023-05-07T16:13:45;13.18;;;6.97;;
37065;SDS011;22981;43.080;25.550;2023-05-07T16:16:12;9.80;;;6.10;;
37065;SDS011;22981;43.080;25.550;2023-05-07T16:18:40;8.70;;;4.28;;
37065;SDS011;22981;43.080;25.550;2023-05-07T16:21:07;4.75;;;3.05;;
37065;SDS011;22981;43.080;25.550;2023-05-07T16:23:35;10.68;;;3.90;;
37065;SDS011;22981;43.080;25.550;2023-05-07T16:26:02;6.10;;;3.20;;
37065;SDS011;22981;43.080;25.550;2023-05-07T16:28:30;6.30;;;3.52;;
37065;SDS011;22981;43.080;25.550;2023-05-07T16:30:58;6.60;;;2.55;;
37065;SDS011;22981;43.080;25.550;2023-05-07T16:33:25;3.02;;;2.10;;
37065;SDS011;22981;43.080;25.550;2023-05-07T16:35:53;8.75;;;3.85;;
37065;SDS011;22981;43.080;25.550;2023-05-07T16:38:20;10.38;;;6.35;;
37065;SDS011;22981;43.080;25.550;2023-05-07T16:40:48;10.08;;;6.42;;
37065;SDS011;22981;43.080;25.550;2023-05-07T16:43:15;7.92;;;5.15;;
37065;SDS011;22981;43.080;25.550;2023-05-07T16:45:44;5.40;;;4.60;;
37065;SDS011;22981;43.080;25.550;2023-05-07T16:48:12;7.47;;;4.47;;
37065;SDS011;22981;43.080;25.550;2023-05-07T16:50:40;5.80;;;3.60;;
37065;SDS011;22981;43.080;25.550;2023-05-07T16:53:09;10.15;;;4.40;;
37065;SDS011;22981;43.080;25.550;2023-05-07T16:55:37;8.28;;;4.58;;
37065;SDS011;22981;43.080;25.550;2023-05-07T16:58:06;10.80;;;5.53;;
37065;SDS011;22981;43.080;25.550;2023-05-07T17:00:35;6.37;;;4.35;;
37065;SDS011;22981;43.080;25.550;2023-05-07T17:03:03;15.88;;;6.10;;
37065;SDS011;22981;43.080;25.550;2023-05-07T17:05:30;11.48;;;5.67;;
37065;SDS011;22981;43.080;25.550;2023-05-07T17:07:58;10.20;;;4.65;;
37065;SDS011;22981;43.080;25.550;2023-05-07T17:10:25;5.12;;;3.90;;
37065;SDS011;22981;43.080;25.550;2023-05-07T17:12:53;7.53;;;4.60;;
37065;SDS011;22981;43.080;25.550;2023-05-07T17:15:20;4.60;;;4.15;;
37065;SDS011;22981;43.080;25.550;2023-05-07T17:17:48;7.05;;;3.80;;
37065;SDS011;22981;43.080;25.550;2023-05-07T17:20:16;5.28;;;4.28;;
37065;SDS011;22981;43.080;25.550;2023-05-07T17:22:43;9.15;;;3.65;;
37065;SDS011;22981;43.080;25.550;2023-05-07T17:25:11;11.38;;;5.12;;
37065;SDS011;22981;43.080;25.550;2023-05-07T17:27:39;12.40;;;5.55;;
37065;SDS011;22981;43.080;25.550;2023-05-07T17:30:07;8.95;;;5.00;;
37065;SDS011;22981;43.080;25.550;2023-05-07T17:32:35;10.45;;;5.83;;
37065;SDS011;22981;43.080;25.550;2023-05-07T17:35:03;18.85;;;10.75;;
37065;SDS011;22981;43.080;25.550;2023-05-07T17:37:31;21.45;;;12.15;;
37065;SDS011;22981;43.080;25.550;2023-05-07T17:39:59;18.27;;;12.25;;
37065;SDS011;22981;43.080;25.550;2023-05-07T17:42:28;22.55;;;13.30;;
37065;SDS011;22981;43.080;25.550;2023-05-07T17:44:56;19.65;;;12.90;;
37065;SDS011;22981;43.080;25.550;2023-05-07T17:47:24;16.57;;;11.83;;
37065;SDS011;22981;43.080;25.550;2023-05-07T17:49:51;15.03;;;9.38;;
37065;SDS011;22981;43.080;25.550;2023-05-07T17:52:19;15.00;;;8.70;;
37065;SDS011;22981;43.080;25.550;2023-05-07T17:54:46;16.75;;;9.05;;
37065;SDS011;22981;43.080;25.550;2023-05-07T17:57:14;13.18;;;9.13;;
37065;SDS011;22981;43.080;25.550;2023-05-07T17:59:42;11.75;;;8.55;;
37065;SDS011;22981;43.080;25.550;2023-05-07T18:02:09;23.73;;;8.33;;
37065;SDS011;22981;43.080;25.550;2023-05-07T18:04:37;14.87;;;7.12;;
37065;SDS011;22981;43.080;25.550;2023-05-07T18:07:04;20.30;;;11.05;;
37065;SDS011;22981;43.080;25.550;2023-05-07T18:09:32;27.00;;;14.73;;
37065;SDS011;22981;43.080;25.550;2023-05-07T18:11:59;21.02;;;11.18;;
37065;SDS011;22981;43.080;25.550;2023-05-07T18:14:27;22.52;;;12.98;;
37065;SDS011;22981;43.080;25.550;2023-05-07T18:16:54;34.20;;;16.80;;
37065;SDS011;22981;43.080;25.550;2023-05-07T18:19:22;42.75;;;22.02;;
37065;SDS011;22981;43.080;25.550;2023-05-07T18:21:51;52.62;;;29.98;;
37065;SDS011;22981;43.080;25.550;2023-05-07T18:24:21;34.03;;;18.20;;
37065;SDS011;22981;43.080;25.550;2023-05-07T18:26:48;48.17;;;25.27;;
37065;SDS011;22981;43.080;25.550;2023-05-07T18:29:16;52.15;;;30.37;;
37065;SDS011;22981;43.080;25.550;2023-05-07T18:31:43;47.53;;;26.20;;
37065;SDS011;22981;43.080;25.550;2023-05-07T18:34:11;47.35;;;22.75;;
37065;SDS011;22981;43.080;25.550;2023-05-07T18:36:39;24.07;;;11.80;;
37065;SDS011;22981;43.080;25.550;2023-05-07T18:39:06;19.27;;;10.78;;
37065;SDS011;22981;43.080;25.550;2023-05-07T18:41:34;16.48;;;9.05;;
37065;SDS011;22981;43.080;25.550;2023-05-07T18:44:02;20.57;;;9.65;;
37065;SDS011;22981;43.080;25.550;2023-05-07T18:46:29;17.85;;;9.73;;
37065;SDS011;22981;43.080;25.550;2023-05-07T18:48:57;23.00;;;12.73;;
37065;SDS011;22981;43.080;25.550;2023-05-07T18:51:24;24.35;;;13.50;;
37065;SDS011;22981;43.080;25.550;2023-05-07T18:53:52;29.72;;;15.03;;
37065;SDS011;22981;43.080;25.550;2023-05-07T18:56:20;24.55;;;12.13;;
37065;SDS011;22981;43.080;25.550;2023-05-07T18:58:48;22.22;;;11.53;;
37065;SDS011;22981;43.080;25.550;2023-05-07T19:01:16;25.65;;;13.43;;
37065;SDS011;22981;43.080;25.550;2023-05-07T19:03:43;24.55;;;13.38;;
37065;SDS011;22981;43.080;25.550;2023-05-07T19:06:11;21.30;;;11.35;;
37065;SDS011;22981;43.080;25.550;2023-05-07T19:08:38;22.75;;;11.45;;
37065;SDS011;22981;43.080;25.550;2023-05-07T19:11:06;27.73;;;11.25;;
37065;SDS011;22981;43.080;25.550;2023-05-07T19:13:34;21.95;;;10.88;;
37065;SDS011;22981;43.080;25.550;2023-05-07T19:16:01;22.30;;;11.20;;
37065;SDS011;22981;43.080;25.550;2023-05-07T19:18:30;12.90;;;6.75;;
37065;SDS011;22981;43.080;25.550;2023-05-07T19:20:57;16.37;;;6.60;;
37065;SDS011;22981;43.080;25.550;2023-05-07T19:23:25;17.70;;;6.65;;
37065;SDS011;22981;43.080;25.550;2023-05-07T19:25:53;12.37;;;6.70;;
37065;SDS011;22981;43.080;25.550;2023-05-07T19:28:20;11.22;;;6.40;;
37065;SDS011;22981;43.080;25.550;2023-05-07T19:30:50;11.33;;;6.22;;
37065;SDS011;22981;43.080;25.550;2023-05-07T19:33:18;9.30;;;5.80;;
37065;SDS011;22981;43.080;25.550;2023-05-07T19:35:45;10.35;;;6.08;;
37065;SDS011;22981;43.080;25.550;2023-05-07T19:38:13;10.70;;;5.90;;
37065;SDS011;22981;43.080;25.550;2023-05-07T19:40:40;8.78;;;6.47;;
37065;SDS011;22981;43.080;25.550;2023-05-07T19:43:08;11.90;;;5.83;;
37065;SDS011;22981;43.080;25.550;2023-05-07T19:45:36;9.45;;;6.30;;
37065;SDS011;22981;43.080;25.550;2023-05-07T19:48:05;8.93;;;6.37;;
37065;SDS011;22981;43.080;25.550;2023-05-07T19:50:32;13.78;;;8.08;;
37065;SDS011;22981;43.080;25.550;2023-05-07T19:53:02;13.28;;;7.35;;
37065;SDS011;22981;43.080;25.550;2023-05-07T19:55:29;9.38;;;6.00;;
37065;SDS011;22981;43.080;25.550;2023-05-07T19:57:57;6.53;;;4.30;;
37065;SDS011;22981;43.080;25.550;2023-05-07T20:00:24;12.18;;;7.47;;
37065;SDS011;22981;43.080;25.550;2023-05-07T20:02:54;7.10;;;4.60;;
37065;SDS011;22981;43.080;25.550;2023-05-07T20:05:21;9.38;;;6.33;;
37065;SDS011;22981;43.080;25.550;2023-05-07T20:07:50;5.75;;;4.15;;
37065;SDS011;22981;43.080;25.550;2023-05-07T20:10:18;5.62;;;3.55;;
37065;SDS011;22981;43.080;25.550;2023-05-07T20:12:45;5.47;;;3.65;;
37065;SDS011;22981;43.080;25.550;2023-05-07T20:15:13;11.65;;;8.38;;
37065;SDS011;22981;43.080;25.550;2023-05-07T20:17:41;8.90;;;5.72;;
37065;SDS011;22981;43.080;25.550;2023-05-07T20:20:09;5.22;;;3.45;;
37065;SDS011;22981;43.080;25.550;2023-05-07T20:22:37;8.30;;;3.22;;
37065;SDS011;22981;43.080;25.550;2023-05-07T20:25:05;5.22;;;2.87;;
37065;SDS011;22981;43.080;25.550;2023-05-07T20:27:33;4.90;;;3.00;;
37065;SDS011;22981;43.080;25.550;2023-05-07T20:30:02;7.17;;;3.00;;
37065;SDS011;22981;43.080;25.550;2023-05-07T20:32:30;4.03;;;2.92;;
37065;SDS011;22981;43.080;25.550;2023-05-07T20:34:57;4.58;;;3.05;;
37065;SDS011;22981;43.080;25.550;2023-05-07T20:37:25;4.22;;;3.40;;
37065;SDS011;22981;43.080;25.550;2023-05-07T20:39:54;6.92;;;3.40;;
37065;SDS011;22981;43.080;25.550;2023-05-07T20:42:21;4.60;;;3.08;;
37065;SDS011;22981;43.080;25.550;2023-05-07T20:44:50;6.70;;;3.10;;
37065;SDS011;22981;43.080;25.550;2023-05-07T20:47:18;8.63;;;3.00;;
37065;SDS011;22981;43.080;25.550;2023-05-07T20:49:53;10.78;;;4.20;;
37065;SDS011;22981;43.080;25.550;2023-05-07T20:52:20;19.35;;;7.70;;
37065;SDS011;22981;43.080;25.550;2023-05-07T20:54:48;6.87;;;3.80;;
37065;SDS011;22981;43.080;25.550;2023-05-07T20:57:15;7.15;;;3.60;;
37065;SDS011;22981;43.080;25.550;2023-05-07T20:59:44;4.45;;;2.47;;
37065;SDS011;22981;43.080;25.550;2023-05-07T21:02:11;4.25;;;2.62;;
37065;SDS011;22981;43.080;25.550;2023-05-07T21:04:39;3.70;;;2.40;;
37065;SDS011;22981;43.080;25.550;2023-05-07T21:07:07;4.58;;;2.40;;
37065;SDS011;22981;43.080;25.550;2023-05-07T21:09:34;4.25;;;2.92;;
37065;SDS011;22981;43.080;25.550;2023-05-07T21:12:02;4.08;;;2.70;;
37065;SDS011;22981;43.080;25.550;2023-05-07T21:14:29;3.58;;;2.22;;
37065;SDS011;22981;43.080;25.550;2023-05-07T21:16:58;7.08;;;2.62;;
37065;SDS011;22981;43.080;25.550;2023-05-07T21:19:26;6.33;;;2.40;;
37065;SDS011;22981;43.080;25.550;2023-05-07T21:21:53;5.25;;;2.75;;
37065;SDS011;22981;43.080;25.550;2023-05-07T21:24:23;4.85;;;2.75;;
37065;SDS011;22981;43.080;25.550;2023-05-07T21:26:53;5.22;;;2.52;;
37065;SDS011;22981;43.080;25.550;2023-05-07T21:29:21;4.08;;;2.50;;